Time;durP1;ratioP1;P1;durP2;ratioP2;P2;SDS_P1;SDS_P2;PMS_P1;PMS_P2;Temp;Humidity;BMP_temperature;BMP_pressure;BME280_temperature;BME280_humidity;BME280_pressure;Samples;Min_cycle;Max_cycle;Signal;HPM_P1;HPM_P2
2024/04/16 11:07:36;;;;;;;18.77;4.22;;;23.60;54.50;;;;;;5446320;26;20005;-78
2024/04/16 11:10:02;;;;;;;26.75;5.60;;;23.60;55.50;;;;;;5450939;26;19999;-73
2024/04/16 11:12:28;;;;;;;23.90;5.72;;;23.60;55.30;;;;;;5454581;26;20006;-74
2024/04/16 11:14:53;;;;;;;25.52;4.95;;;23.50;55.90;;;;;;5454402;26;20316;-75
2024/04/16 11:17:19;;;;;;;19.95;4.35;;;23.50;55.20;;;;;;5454260;26;20009;-75
2024/04/16 11:19:46;;;;;;;26.38;4.25;;;23.50;55.10;;;;;;5454566;26;20002;-74
2024/04/16 11:22:12;;;;;;;27.48;5.50;;;23.50;54.70;;;;;;5422515;26;20010;-75
2024/04/16 11:24:38;;;;;;;22.40;5.18;;;23.50;54.50;;;;;;5453823;26;20407;-73
2024/04/16 11:27:10;;;;;;;20.55;4.78;;;23.50;54.60;;;;;;5417216;26;20023;-73
2024/04/16 11:29:36;;;;;;;24.75;4.85;;;23.50;54.50;;;;;;5443503;26;19995;-73
2024/04/16 11:32:01;;;;;;;33.53;5.13;;;23.60;54.60;;;;;;5453514;26;20005;-73
2024/04/16 11:34:27;;;;;;;22.25;4.68;;;23.60;54.20;;;;;;5453729;26;20323;-73
2024/04/16 11:36:56;;;;;;;24.08;5.55;;;23.70;54.30;;;;;;5453710;26;19998;-72
2024/04/16 11:39:24;;;;;;;19.45;4.65;;;23.70;54.10;;;;;;5453458;26;20119;-73
2024/04/16 11:41:50;;;;;;;28.33;4.85;;;23.70;53.90;;;;;;5435855;26;20060;-73
2024/04/16 11:44:16;;;;;;;18.38;4.32;;;23.70;54.60;;;;;;5417017;26;20000;-74
2024/04/16 11:46:41;;;;;;;18.73;4.40;;;23.80;53.30;;;;;;5446393;26;20091;-73
2024/04/16 11:49:07;;;;;;;23.77;4.43;;;23.80;53.50;;;;;;5453583;26;19990;-73
2024/04/16 11:51:33;;;;;;;22.38;4.75;;;23.70;53.20;;;;;;5453621;26;20074;-74
2024/04/16 11:53:58;;;;;;;21.15;4.85;;;23.70;52.90;;;;;;5453798;26;19991;-73
2024/04/16 11:56:24;;;;;;;13.70;3.55;;;23.70;52.40;;;;;;5454132;26;19994;-74
2024/04/16 11:58:50;;;;;;;12.63;3.28;;;23.80;51.90;;;;;;5453270;26;20068;-75
2024/04/16 12:01:15;;;;;;;18.33;3.55;;;23.80;51.10;;;;;;5422873;26;19994;-72
2024/04/16 12:03:41;;;;;;;12.63;3.30;;;23.70;50.90;;;;;;5451731;26;20423;-73
2024/04/16 12:06:07;;;;;;;17.73;3.88;;;23.80;50.80;;;;;;5435027;26;19992;-73
2024/04/16 12:08:32;;;;;;;23.77;4.05;;;23.70;50.00;;;;;;5455652;26;20009;-74
2024/04/16 12:10:59;;;;;;;23.25;4.18;;;23.70;49.00;;;;;;5487520;26;19990;-74
2024/04/16 12:13:24;;;;;;;16.73;3.63;;;23.70;49.30;;;;;;5489006;26;20001;-72
2024/04/16 12:15:50;;;;;;;15.02;3.63;;;23.60;49.10;;;;;;5478026;26;19995;-74
2024/04/16 12:18:15;;;;;;;18.30;3.65;;;23.70;49.30;;;;;;5474013;26;20001;-75
2024/04/16 12:20:41;;;;;;;17.27;3.78;;;23.70;49.30;;;;;;5453948;26;20003;-75
2024/04/16 12:23:07;;;;;;;15.45;3.75;;;23.70;49.60;;;;;;5456742;26;19991;-76
2024/04/16 12:25:32;;;;;;;17.58;4.20;;;23.70;49.90;;;;;;5459866;26;20009;-76
2024/04/16 12:27:59;;;;;;;12.98;3.45;;;23.80;50.10;;;;;;5453856;26;19995;-76
2024/04/16 12:30:25;;;;;;;13.52;3.33;;;23.90;50.00;;;;;;5453222;26;19991;-75
2024/04/16 12:32:50;;;;;;;16.88;3.72;;;23.90;49.70;;;;;;5468078;26;20450;-75
2024/04/16 12:35:16;;;;;;;21.70;4.47;;;24.00;49.40;;;;;;5488928;26;20001;-76
2024/04/16 12:37:42;;;;;;;18.10;5.55;;;24.00;49.20;;;;;;5489409;26;20006;-77
2024/04/16 12:40:08;;;;;;;18.63;4.45;;;24.10;49.20;;;;;;5489227;26;20422;-76
2024/04/16 12:42:33;;;;;;;9.68;2.92;;;24.20;49.00;;;;;;5488281;26;20010;-75
2024/04/16 12:44:59;;;;;;;20.23;3.42;;;24.20;48.90;;;;;;5489748;26;19990;-75
2024/04/16 12:47:25;;;;;;;16.73;3.72;;;24.20;48.50;;;;;;5489504;26;19993;-76
2024/04/16 12:49:52;;;;;;;14.43;3.60;;;24.10;48.40;;;;;;5487242;26;20005;-76
2024/04/16 12:52:17;;;;;;;23.30;3.95;;;24.10;48.40;;;;;;5488683;26;20006;-76
2024/04/16 12:54:43;;;;;;;13.18;3.67;;;24.10;48.30;;;;;;5488572;26;20005;-76
2024/04/16 12:57:09;;;;;;;14.45;3.65;;;24.00;48.20;;;;;;5488908;26;20306;-76
2024/04/16 12:59:34;;;;;;;12.88;3.70;;;24.10;48.30;;;;;;5489338;26;19994;-76
2024/04/16 13:02:00;;;;;;;19.38;4.00;;;24.20;48.10;;;;;;5489525;26;20327;-75
2024/04/16 13:04:25;;;;;;;16.67;3.38;;;24.30;47.40;;;;;;5488983;26;20023;-76
2024/04/16 13:06:51;;;;;;;16.60;3.53;;;24.40;46.70;;;;;;5489189;26;19993;-76
2024/04/16 13:09:17;;;;;;;14.13;2.97;;;24.40;46.60;;;;;;5488889;26;19990;-76
2024/04/16 13:11:42;;;;;;;13.13;3.20;;;24.40;46.70;;;;;;5488498;26;20001;-75
2024/04/16 13:14:09;;;;;;;15.68;3.20;;;24.40;46.50;;;;;;5486593;26;19994;-76
2024/04/16 13:16:36;;;;;;;13.77;3.70;;;24.30;46.40;;;;;;5487603;26;20068;-75
2024/04/16 13:19:02;;;;;;;13.43;2.95;;;24.20;46.40;;;;;;5488404;26;20001;-76
2024/04/16 13:21:28;;;;;;;11.07;3.08;;;24.20;46.00;;;;;;5489150;26;19990;-75
2024/04/16 13:23:54;;;;;;;15.25;2.72;;;24.10;45.00;;;;;;5456974;26;20006;-75
2024/04/16 13:26:19;;;;;;;12.57;3.20;;;24.10;44.00;;;;;;5488509;26;19986;-77
2024/04/16 13:28:45;;;;;;;19.25;3.05;;;24.10;43.90;;;;;;5487779;26;19986;-75
2024/04/16 13:31:11;;;;;;;11.80;2.92;;;24.00;44.60;;;;;;5488797;26;20001;-76
2024/04/16 13:33:37;;;;;;;11.10;3.00;;;24.00;44.00;;;;;;5488491;26;20350;-75
2024/04/16 13:36:03;;;;;;;16.48;3.63;;;24.10;44.40;;;;;;5488204;26;19994;-75
2024/04/16 13:38:29;;;;;;;13.20;3.75;;;24.20;44.40;;;;;;5488358;26;20434;-75
2024/04/16 13:40:55;;;;;;;13.90;3.45;;;24.20;44.20;;;;;;5488630;26;20437;-76
2024/04/16 13:43:21;;;;;;;15.00;3.58;;;24.20;43.70;;;;;;5488223;26;19989;-74
2024/04/16 13:45:49;;;;;;;18.02;3.80;;;24.10;43.90;;;;;;5488040;26;20346;-76
2024/04/16 13:48:15;;;;;;;12.10;3.45;;;24.20;43.90;;;;;;5485982;26;20154;-76
2024/04/16 13:50:42;;;;;;;16.83;4.10;;;24.20;44.20;;;;;;5488323;26;20006;-77
2024/04/16 13:53:08;;;;;;;18.83;3.83;;;24.20;44.60;;;;;;5486985;26;19998;-75
2024/04/16 13:55:35;;;;;;;16.00;3.85;;;24.30;44.40;;;;;;5487848;26;20513;-76
2024/04/16 13:58:01;;;;;;;21.42;4.03;;;24.20;44.50;;;;;;5488201;26;19997;-76
2024/04/16 14:00:27;;;;;;;21.10;4.28;;;24.10;45.30;;;;;;5487790;26;20398;-75
2024/04/16 14:02:53;;;;;;;19.15;4.18;;;24.00;45.80;;;;;;5482300;26;19991;-77
2024/04/16 14:05:18;;;;;;;14.68;3.58;;;23.90;45.90;;;;;;5488194;26;19994;-75
2024/04/16 14:07:44;;;;;;;17.15;4.03;;;23.80;46.20;;;;;;5487800;26;19990;-73
2024/04/16 14:10:10;;;;;;;22.35;4.22;;;23.90;46.80;;;;;;5488126;26;20105;-73
2024/04/16 14:12:35;;;;;;;21.17;4.43;;;23.90;47.10;;;;;;5487626;26;20059;-74
2024/04/16 14:15:01;;;;;;;18.30;3.95;;;23.90;47.10;;;;;;5487693;26;20410;-73
2024/04/16 14:17:27;;;;;;;14.75;3.95;;;24.00;47.40;;;;;;5487623;26;19998;-72
2024/04/16 14:19:53;;;;;;;16.88;4.38;;;24.10;47.60;;;;;;5487418;26;19997;-73
2024/04/16 14:22:18;;;;;;;17.38;4.68;;;24.10;47.40;;;;;;5487529;26;20006;-73
2024/04/16 14:24:44;;;;;;;17.45;4.45;;;24.10;47.50;;;;;;5474465;26;20338;-74
2024/04/16 14:27:10;;;;;;;20.60;4.78;;;24.10;47.30;;;;;;5473495;26;20002;-75
2024/04/16 14:29:37;;;;;;;22.65;5.07;;;23.90;47.20;;;;;;5464514;26;20339;-73
2024/04/16 14:32:03;;;;;;;24.20;4.60;;;23.80;47.70;;;;;;5485417;26;20466;-72
2024/04/16 14:34:29;;;;;;;21.85;5.22;;;23.90;47.70;;;;;;5487713;26;20005;-73
2024/04/16 14:36:54;;;;;;;20.48;5.00;;;23.90;48.40;;;;;;5487823;26;20116;-73
2024/04/16 14:39:21;;;;;;;22.42;4.28;;;23.90;48.70;;;;;;5487831;26;20001;-73
2024/04/16 14:41:50;;;;;;;27.90;4.97;;;23.90;48.90;;;;;;5486390;26;20078;-74
2024/04/16 14:44:15;;;;;;;18.30;4.28;;;23.70;48.60;;;;;;5487653;26;20009;-73
2024/04/16 14:46:45;;;;;;;18.80;4.70;;;23.60;49.10;;;;;;5487998;26;20319;-73
2024/04/16 14:49:12;;;;;;;24.02;4.35;;;23.60;49.30;;;;;;5487228;26;20083;-73
2024/04/16 14:51:37;;;;;;;22.08;4.55;;;23.50;49.90;;;;;;5487016;26;19994;-73
2024/04/16 14:54:03;;;;;;;22.50;5.95;;;23.40;50.30;;;;;;5487484;26;19986;-73
2024/04/16 14:56:28;;;;;;;24.15;4.63;;;23.40;50.60;;;;;;5487460;26;20291;-75
2024/04/16 14:58:54;;;;;;;21.15;5.88;;;23.40;50.60;;;;;;5487668;26;19998;-75
2024/04/16 15:01:20;;;;;;;21.27;4.43;;;23.60;51.00;;;;;;5485616;26;20066;-79
2024/04/16 15:03:46;;;;;;;19.35;4.65;;;23.60;50.40;;;;;;5487214;26;19994;-75
2024/04/16 15:06:11;;;;;;;27.10;5.32;;;23.60;50.20;;;;;;5491673;26;20004;-77
2024/04/16 15:08:37;;;;;;;23.15;4.75;;;23.80;51.00;;;;;;5492097;26;19994;-78
2024/04/16 15:11:03;;;;;;;20.30;4.55;;;23.90;50.40;;;;;;5491242;26;20002;-79
2024/04/16 15:13:28;;;;;;;20.40;4.75;;;23.90;49.70;;;;;;5491699;26;20001;-82
2024/04/16 15:15:56;;;;;;;27.27;6.05;;;23.80;50.50;;;;;;5491533;26;19994;-84
2024/04/16 15:18:21;;;;;;;25.08;6.15;;;23.70;50.40;;;;;;5491705;26;19990;-81
2024/04/16 15:20:47;;;;;;;19.98;4.90;;;23.60;50.40;;;;;;5482267;26;20009;-75
2024/04/16 15:23:13;;;;;;;18.60;4.60;;;23.50;50.40;;;;;;5487451;26;19999;-80
2024/04/16 15:25:39;;;;;;;18.25;4.30;;;23.50;50.70;;;;;;5476127;26;19991;-78
2024/04/16 15:28:05;;;;;;;21.92;4.97;;;23.40;51.40;;;;;;5489946;26;19990;-81
2024/04/16 15:30:31;;;;;;;29.75;5.45;;;23.30;51.60;;;;;;5491479;26;20038;-75
2024/04/16 15:32:56;;;;;;;20.42;4.35;;;23.20;51.50;;;;;;5490600;26;20003;-78
2024/04/16 15:35:22;;;;;;;26.85;6.40;;;23.30;52.20;;;;;;5490720;26;20028;-79
2024/04/16 15:37:48;;;;;;;20.25;5.63;;;23.10;52.60;;;;;;5490464;26;20066;-78
2024/04/16 15:40:14;;;;;;;22.75;6.03;;;23.10;53.20;;;;;;5490468;26;20073;-73
2024/04/16 15:42:40;;;;;;;24.98;6.28;;;23.10;53.10;;;;;;5488568;26;20001;-81
2024/04/16 15:45:05;;;;;;;17.40;3.72;;;22.90;53.10;;;;;;5490722;26;20005;-82
2024/04/16 15:47:31;;;;;;;21.83;4.60;;;22.90;52.70;;;;;;5490845;26;20341;-81
2024/04/16 15:49:57;;;;;;;20.48;4.88;;;22.70;53.10;;;;;;5490840;26;20311;-81
2024/04/16 15:52:23;;;;;;;26.50;5.25;;;22.70;52.60;;;;;;5491639;26;20005;-82
2024/04/16 15:54:50;;;;;;;23.90;4.80;;;22.60;53.30;;;;;;5488696;26;20005;-80
2024/04/16 15:57:16;;;;;;;22.50;5.05;;;22.30;52.90;;;;;;5489836;26;20464;-78
2024/04/16 15:59:42;;;;;;;24.77;6.75;;;22.10;52.80;;;;;;5487965;26;20062;-79
2024/04/16 16:02:08;;;;;;;20.25;5.15;;;22.00;52.70;;;;;;5489830;26;19998;-79
2024/04/16 16:04:33;;;;;;;17.98;4.57;;;21.90;53.00;;;;;;5488067;26;19997;-79
2024/04/16 16:06:59;;;;;;;23.15;4.93;;;21.90;53.20;;;;;;5490344;26;19986;-80
2024/04/16 16:09:25;;;;;;;22.75;5.05;;;21.70;53.20;;;;;;5489602;26;20330;-78
2024/04/16 16:11:50;;;;;;;24.92;5.22;;;21.80;53.60;;;;;;5490108;26;19990;-79
2024/04/16 16:14:18;;;;;;;20.20;4.35;;;21.70;53.60;;;;;;5488429;26;20066;-77
2024/04/16 16:16:44;;;;;;;24.83;4.82;;;21.60;53.40;;;;;;5489279;26;20066;-78
2024/04/16 16:19:09;;;;;;;28.15;5.00;;;21.50;53.40;;;;;;5489845;26;19998;-79
2024/04/16 16:21:35;;;;;;;25.55;5.65;;;21.40;53.40;;;;;;5489802;26;20001;-79
2024/04/16 16:24:01;;;;;;;24.05;5.28;;;21.50;54.20;;;;;;5489667;26;20306;-79
2024/04/16 16:26:26;;;;;;;30.92;6.45;;;21.50;53.70;;;;;;5490303;26;20000;-79
2024/04/16 16:28:52;;;;;;;23.35;4.97;;;21.50;54.10;;;;;;5489825;26;19994;-78
2024/04/16 16:31:18;;;;;;;26.60;5.55;;;21.30;54.00;;;;;;5497103;26;20009;-76
2024/04/16 16:33:43;;;;;;;20.65;4.80;;;21.30;54.40;;;;;;5504172;26;20022;-78
2024/04/16 16:36:09;;;;;;;20.58;4.65;;;21.20;54.60;;;;;;5508209;26;20027;-78
2024/04/16 16:38:41;;;;;;;24.42;5.63;;;21.10;54.20;;;;;;5504484;26;20089;-80
2024/04/16 16:41:06;;;;;;;25.85;5.65;;;21.00;54.60;;;;;;5489828;26;20022;-79
2024/04/16 16:43:32;;;;;;;23.17;5.25;;;20.90;54.80;;;;;;5489954;26;19998;-79
2024/04/16 16:46:01;;;;;;;31.13;5.60;;;20.80;55.20;;;;;;5489424;26;19994;-79
2024/04/16 16:48:27;;;;;;;29.73;5.95;;;20.70;55.20;;;;;;5489691;26;20006;-77
2024/04/16 16:50:52;;;;;;;26.20;5.82;;;20.60;55.30;;;;;;5489096;26;20005;-78
2024/04/16 16:53:18;;;;;;;28.80;10.68;;;20.50;55.60;;;;;;5467948;21;20072;-79
2024/04/16 16:55:51;;;;;;;27.05;6.40;;;20.50;56.10;;;;;;5452958;26;19995;-78
2024/04/16 16:58:17;;;;;;;31.73;5.72;;;20.30;56.10;;;;;;5452265;26;20088;-78
2024/04/16 17:00:43;;;;;;;34.13;6.45;;;20.30;56.10;;;;;;5452967;26;19998;-79
2024/04/16 17:03:09;;;;;;;27.40;5.75;;;20.20;56.50;;;;;;5420665;26;19999;-79
2024/04/16 17:05:35;;;;;;;31.50;6.88;;;20.20;56.70;;;;;;5452514;26;20045;-79
2024/04/16 17:08:00;;;;;;;26.75;6.05;;;20.10;56.90;;;;;;5452624;26;19999;-79
2024/04/16 17:10:26;;;;;;;28.92;6.88;;;20.10;56.90;;;;;;5452864;26;20010;-78
2024/04/16 17:12:52;;;;;;;29.13;6.07;;;20.10;57.20;;;;;;5452574;26;20010;-79
2024/04/16 17:15:20;;;;;;;31.40;6.30;;;20.10;57.40;;;;;;5420834;26;20013;-79
2024/04/16 17:17:45;;;;;;;28.42;6.40;;;20.10;57.40;;;;;;5420825;26;19995;-80
2024/04/16 17:20:11;;;;;;;37.13;6.65;;;20.00;57.60;;;;;;5451944;26;20514;-78
2024/04/16 17:22:36;;;;;;;27.83;6.65;;;19.90;57.60;;;;;;5420656;26;20457;-80
2024/04/16 17:25:02;;;;;;;24.85;6.55;;;19.90;57.50;;;;;;5452509;26;20041;-78
2024/04/16 17:27:28;;;;;;;23.90;5.07;;;19.80;57.30;;;;;;5451417;26;20099;-77
2024/04/16 17:29:54;;;;;;;33.72;7.55;;;19.80;57.50;;;;;;5452663;26;20019;-77
2024/04/16 17:32:19;;;;;;;35.88;6.85;;;19.70;57.50;;;;;;5452300;26;20022;-79
2024/04/16 17:34:45;;;;;;;28.05;5.82;;;19.70;57.70;;;;;;5451834;26;20368;-77
2024/04/16 17:37:11;;;;;;;29.10;6.20;;;19.70;58.10;;;;;;5452496;26;20015;-78
2024/04/16 17:39:36;;;;;;;38.05;6.38;;;19.70;57.90;;;;;;5420620;26;19995;-79
2024/04/16 17:42:02;;;;;;;36.47;7.45;;;19.70;58.10;;;;;;5452537;26;20023;-77
2024/04/16 17:44:28;;;;;;;37.00;6.85;;;19.60;58.40;;;;;;5455997;26;19994;-87
2024/04/16 17:46:54;;;;;;;33.47;7.30;;;19.60;58.60;;;;;;5467393;26;20033;-78
2024/04/16 17:49:20;;;;;;;32.90;6.65;;;19.50;58.50;;;;;;5466062;26;20001;-79
2024/04/16 17:51:46;;;;;;;28.42;7.30;;;19.50;58.80;;;;;;5395934;26;19992;-80
2024/04/16 17:54:12;;;;;;;34.25;6.95;;;19.40;59.00;;;;;;5453800;26;20051;-79
2024/04/16 17:56:38;;;;;;;28.77;6.40;;;19.40;59.30;;;;;;5414771;26;20069;-82
2024/04/16 17:59:04;;;;;;;38.90;7.80;;;19.40;59.70;;;;;;5438095;26;19998;-83
2024/04/16 18:01:29;;;;;;;31.98;6.95;;;19.30;59.70;;;;;;5450777;26;20124;-84
2024/04/16 18:03:59;;;;;;;30.10;6.32;;;19.40;60.30;;;;;;5452245;26;20326;-83
2024/04/16 18:06:26;;;;;;;34.83;7.35;;;19.40;60.50;;;;;;5454535;26;20198;-78
2024/04/16 18:08:52;;;;;;;28.05;6.88;;;19.50;60.50;;;;;;5452058;26;19995;-80
2024/04/16 18:11:18;;;;;;;31.35;6.65;;;19.50;60.30;;;;;;5428240;26;20017;-77
2024/04/16 18:13:43;;;;;;;35.38;12.90;;;19.50;60.40;;;;;;5449007;26;20003;-82
2024/04/16 18:16:09;;;;;;;32.50;7.03;;;19.50;60.30;;;;;;5451260;26;20003;-80
2024/04/16 18:18:35;;;;;;;31.13;6.57;;;19.50;60.50;;;;;;5451852;26;19995;-78
2024/04/16 18:21:01;;;;;;;33.15;7.82;;;19.50;61.80;;;;;;5457557;26;20009;-83
2024/04/16 18:23:29;;;;;;;31.58;7.55;;;19.50;61.10;;;;;;5429537;26;19995;-84
2024/04/16 18:25:55;;;;;;;32.17;6.18;;;19.50;61.30;;;;;;5417046;26;20065;-88
2024/04/16 18:28:22;;;;;;;36.08;6.88;;;19.60;61.60;;;;;;5416561;26;19995;-76
2024/04/16 18:30:48;;;;;;;28.63;6.30;;;19.60;61.60;;;;;;5417460;26;20026;-88
2024/04/16 18:33:14;;;;;;;29.70;6.45;;;19.60;60.50;;;;;;5421490;26;20047;-87
2024/04/16 18:35:41;;;;;;;34.20;6.63;;;19.40;60.80;;;;;;5419510;26;19995;-89
2024/04/16 18:38:08;;;;;;;30.33;9.48;;;19.40;61.40;;;;;;5388483;26;19992;-87
2024/04/16 18:40:37;;;;;;;25.02;7.28;;;19.40;61.20;;;;;;5422029;26;20401;-85
2024/04/16 18:43:03;;;;;;;34.90;7.85;;;19.40;61.50;;;;;;5421988;26;20514;-88
2024/04/16 18:45:29;;;;;;;25.63;7.85;;;19.40;61.30;;;;;;5419510;26;19992;-77
2024/04/16 18:47:55;;;;;;;35.33;7.55;;;19.40;61.20;;;;;;5418839;26;20056;-86
2024/04/16 18:50:20;;;;;;;33.90;7.10;;;19.30;61.40;;;;;;5421634;26;19991;-88
2024/04/16 18:52:46;;;;;;;34.65;7.00;;;19.30;61.50;;;;;;5441656;26;20003;-87
2024/04/16 18:55:12;;;;;;;31.98;7.28;;;19.30;61.80;;;;;;5455182;26;19991;-79
2024/04/16 18:57:37;;;;;;;30.85;6.85;;;19.40;62.00;;;;;;5455959;26;20104;-81
2024/04/16 19:00:04;;;;;;;36.35;6.30;;;19.40;61.70;;;;;;5457927;26;20002;-90
2024/04/16 19:02:29;;;;;;;32.13;6.47;;;19.40;62.00;;;;;;5454982;26;20002;-86
2024/04/16 19:04:55;;;;;;;31.45;7.00;;;19.30;61.80;;;;;;5457445;26;19995;-82
2024/04/16 19:07:21;;;;;;;41.58;7.72;;;19.20;62.10;;;;;;5455554;26;20002;-79
2024/04/16 19:09:46;;;;;;;30.58;6.72;;;19.20;62.40;;;;;;5455973;26;19998;-81
2024/04/16 19:12:12;;;;;;;34.30;7.22;;;19.20;62.50;;;;;;5426739;26;20003;-87
2024/04/16 19:14:38;;;;;;;30.65;6.95;;;19.10;62.70;;;;;;5456566;26;19998;-84
2024/04/16 19:17:03;;;;;;;29.27;6.20;;;19.20;62.90;;;;;;5454399;26;20005;-73
2024/04/16 19:19:29;;;;;;;32.97;6.80;;;19.20;62.80;;;;;;5453584;26;19994;-74
2024/04/16 19:21:55;;;;;;;33.83;6.90;;;19.20;62.80;;;;;;5453573;26;20442;-75
2024/04/16 19:24:20;;;;;;;34.67;6.93;;;19.10;62.50;;;;;;5448126;26;20535;-74
2024/04/16 19:26:46;;;;;;;41.25;8.00;;;19.00;62.50;;;;;;5452185;26;20450;-74
2024/04/16 19:29:12;;;;;;;41.83;7.78;;;18.90;62.70;;;;;;5451920;26;20002;-74
2024/04/16 19:31:37;;;;;;;33.60;6.78;;;18.90;62.70;;;;;;5452494;26;20419;-74
2024/04/16 19:34:04;;;;;;;34.80;7.43;;;18.80;62.90;;;;;;5430393;26;20004;-74
2024/04/16 19:36:30;;;;;;;34.88;7.22;;;18.80;62.80;;;;;;5416697;26;20065;-73
2024/04/16 19:38:55;;;;;;;33.53;7.25;;;18.70;63.00;;;;;;5415965;26;20446;-74
2024/04/16 19:41:24;;;;;;;33.95;6.75;;;18.70;63.20;;;;;;5423167;26;20033;-73
2024/04/16 19:43:50;;;;;;;33.97;6.90;;;18.70;63.50;;;;;;5453601;26;19999;-73
2024/04/16 19:46:16;;;;;;;37.88;7.85;;;18.60;63.30;;;;;;5452857;26;19995;-73
2024/04/16 19:48:42;;;;;;;36.53;7.95;;;18.60;63.30;;;;;;5452749;26;20465;-73
2024/04/16 19:51:08;;;;;;;33.80;7.47;;;18.60;63.60;;;;;;5462133;26;19987;-74
2024/04/16 19:53:34;;;;;;;34.08;7.88;;;18.50;63.50;;;;;;5469261;26;20057;-74
2024/04/16 19:56:02;;;;;;;33.75;8.30;;;18.50;63.60;;;;;;5454630;26;19991;-73
2024/04/16 19:58:36;;;;;;;34.22;7.70;;;18.50;63.70;;;;;;5452876;26;19994;-74
2024/04/16 20:01:06;;;;;;;43.53;9.40;;;18.50;64.50;;;;;;5452481;26;19995;-73
2024/04/16 20:03:35;;;;;;;44.38;8.57;;;18.50;63.60;;;;;;5437841;26;20011;-74
2024/04/16 20:06:08;;;;;;;36.70;8.02;;;18.40;63.80;;;;;;5416327;26;20064;-74
2024/04/16 20:08:34;;;;;;;;;;;18.40;64.00;;;;;;5416885;26;20003;-73
2024/04/16 20:11:04;;;;;;;32.85;7.18;;;18.40;64.50;;;;;;5416292;26;19937;-72
2024/04/16 20:13:30;;;;;;;29.88;6.55;;;18.40;63.90;;;;;;5416506;26;20373;-74
2024/04/16 20:15:56;;;;;;;30.27;7.25;;;18.30;64.10;;;;;;5416502;26;20000;-73
2024/04/16 20:18:22;;;;;;;33.40;8.00;;;18.30;64.40;;;;;;5430314;26;20423;-74
2024/04/16 20:21:01;;;;;;;33.00;6.88;;;18.20;64.30;;;;;;5452272;26;19995;-72
2024/04/16 20:23:27;;;;;;;35.20;7.00;;;18.20;64.40;;;;;;5451637;26;20156;-73
2024/04/16 20:26:04;;;;;;;35.47;6.90;;;18.20;64.70;;;;;;5452143;26;19991;-73
2024/04/16 20:28:32;;;;;;;43.33;7.05;;;18.20;64.90;;;;;;5451819;26;20031;-73
2024/04/16 20:30:58;;;;;;;32.63;6.82;;;18.20;64.90;;;;;;5452057;26;19995;-73
2024/04/16 20:33:25;;;;;;;38.58;7.72;;;18.20;65.00;;;;;;5452262;26;19995;-72
2024/04/16 20:35:51;;;;;;;41.67;7.50;;;18.20;65.10;;;;;;5454690;26;20422;-71
2024/04/16 20:38:16;;;;;;;37.88;7.32;;;18.10;65.20;;;;;;5472471;26;20001;-71
2024/04/16 20:40:42;;;;;;;37.75;7.43;;;18.10;65.40;;;;;;5488592;26;20393;-74
2024/04/16 20:43:08;;;;;;;35.45;8.20;;;18.10;65.40;;;;;;5472114;26;20007;-72
2024/04/16 20:45:34;;;;;;;34.35;7.50;;;18.10;65.40;;;;;;5416461;26;19992;-73
2024/04/16 20:48:02;;;;;;;41.60;7.45;;;18.00;65.60;;;;;;5416769;26;19995;-74
2024/04/16 20:50:28;;;;;;;41.28;7.53;;;18.00;65.50;;;;;;5416629;26;20024;-72
2024/04/16 20:52:54;;;;;;;33.70;6.68;;;18.10;65.70;;;;;;5384589;26;19991;-73
2024/04/16 20:55:19;;;;;;;41.17;7.40;;;18.10;65.80;;;;;;5416331;26;20002;-73
2024/04/16 20:57:45;;;;;;;35.67;7.70;;;18.10;65.80;;;;;;5416128;26;19988;-73
2024/04/16 21:00:11;;;;;;;33.42;7.78;;;18.10;65.60;;;;;;5415618;26;19993;-73
2024/04/16 21:02:37;;;;;;;27.95;6.90;;;18.10;66.00;;;;;;5414490;26;20002;-73
2024/04/16 21:05:03;;;;;;;41.75;8.00;;;18.10;66.10;;;;;;5416334;26;19991;-74
2024/04/16 21:07:28;;;;;;;34.25;7.82;;;18.10;66.00;;;;;;5450281;26;19991;-74
2024/04/16 21:09:54;;;;;;;28.67;6.45;;;18.10;66.10;;;;;;5450290;26;19998;-73
2024/04/16 21:12:20;;;;;;;43.30;11.80;;;18.10;66.30;;;;;;5449533;26;19995;-73
2024/04/16 21:14:45;;;;;;;46.10;16.00;;;18.00;66.30;;;;;;5450899;26;19991;-72
2024/04/16 21:17:12;;;;;;;41.70;9.27;;;18.00;66.20;;;;;;5452060;26;20021;-73
2024/04/16 21:19:38;;;;;;;37.58;8.10;;;18.00;66.30;;;;;;5418742;26;20453;-72
2024/04/16 21:22:04;;;;;;;43.90;8.45;;;18.00;66.30;;;;;;5415963;26;20087;-72
2024/04/16 21:24:30;;;;;;;36.72;7.88;;;18.00;66.40;;;;;;5416255;26;19991;-72
2024/04/16 21:26:56;;;;;;;39.17;7.90;;;18.00;66.40;;;;;;5416078;26;20001;-71
2024/04/16 21:29:21;;;;;;;38.10;7.90;;;18.00;66.40;;;;;;5415380;26;19995;-71
2024/04/16 21:31:47;;;;;;;35.45;8.65;;;17.90;66.10;;;;;;5385283;26;19996;-72
2024/04/16 21:34:13;;;;;;;33.47;7.70;;;17.90;66.20;;;;;;5439420;26;20034;-73
2024/04/16 21:36:39;;;;;;;38.03;7.50;;;17.90;66.30;;;;;;5451041;26;20086;-72
2024/04/16 21:39:04;;;;;;;37.22;8.13;;;17.90;66.40;;;;;;5451600;26;20003;-72
2024/04/16 21:41:30;;;;;;;43.13;8.05;;;17.90;66.30;;;;;;5451181;26;20006;-73
2024/04/16 21:43:56;;;;;;;35.50;7.40;;;17.90;66.30;;;;;;5426617;26;20000;-72
2024/04/16 21:46:21;;;;;;;37.78;8.00;;;17.90;66.50;;;;;;5415741;26;20007;-72
2024/04/16 21:48:47;;;;;;;55.20;8.98;;;17.80;66.30;;;;;;5415172;26;19995;-71
2024/04/16 21:51:13;;;;;;;42.80;8.52;;;17.80;66.40;;;;;;5424578;26;20011;-72
2024/04/16 21:53:38;;;;;;;35.15;7.70;;;17.80;66.30;;;;;;5451305;26;20083;-73
2024/04/16 21:56:04;;;;;;;38.67;8.38;;;17.80;66.40;;;;;;5451726;26;19994;-72
2024/04/16 21:58:30;;;;;;;35.80;8.60;;;17.80;66.30;;;;;;5464630;26;20044;-72
2024/04/16 22:01:02;;;;;;;39.35;6.85;;;17.80;66.30;;;;;;5468885;26;20082;-73
2024/04/16 22:03:28;;;;;;;50.63;8.73;;;17.80;66.30;;;;;;5453645;26;20010;-74
2024/04/16 22:05:58;;;;;;;29.30;6.60;;;17.80;66.40;;;;;;5452239;26;20392;-74
2024/04/16 22:08:24;;;;;;;31.77;6.82;;;17.80;66.50;;;;;;5451839;26;20010;-72
2024/04/16 22:11:02;;;;;;;30.80;7.25;;;17.80;66.30;;;;;;5450217;26;19999;-72
2024/04/16 22:13:28;;;;;;;38.13;7.43;;;17.80;66.40;;;;;;5454452;26;20035;-71
2024/04/16 22:15:58;;;;;;;38.50;7.88;;;17.70;66.40;;;;;;5457190;26;19999;-72
2024/04/16 22:18:25;;;;;;;45.40;7.55;;;17.70;66.30;;;;;;5458663;26;20450;-73
2024/04/16 22:20:51;;;;;;;35.45;7.55;;;17.70;66.30;;;;;;5459413;26;19999;-71
2024/04/16 22:23:20;;;;;;;38.83;8.25;;;17.70;66.50;;;;;;5459510;26;19995;-73
2024/04/16 22:26:00;;;;;;;43.65;8.00;;;17.60;66.30;;;;;;5459300;26;20039;-73
2024/04/16 22:28:25;;;;;;;40.35;7.80;;;17.60;66.40;;;;;;5459630;26;20036;-73
2024/04/16 22:30:51;;;;;;;37.70;7.57;;;17.60;66.50;;;;;;5458923;26;19995;-70
2024/04/16 22:33:16;;;;;;;35.70;8.00;;;17.60;66.50;;;;;;5459390;26;19995;-73
2024/04/16 22:35:49;;;;;;;36.17;7.97;;;17.60;66.80;;;;;;5459343;26;19999;-73
2024/04/16 22:38:16;;;;;;;34.63;6.88;;;17.60;66.70;;;;;;5459300;26;19998;-72
2024/04/16 22:40:49;;;;;;;44.20;8.50;;;17.60;66.60;;;;;;5459580;26;20010;-73
2024/04/16 22:43:15;;;;;;;40.45;7.72;;;17.50;66.70;;;;;;5459010;26;19999;-73
2024/04/16 22:45:55;;;;;;;39.20;7.35;;;17.50;67.40;;;;;;5459031;26;20175;-72
2024/04/16 22:48:23;;;;;;;34.63;7.55;;;17.50;66.70;;;;;;5459076;26;19995;-73
2024/04/16 22:50:50;;;;;;;37.22;7.50;;;17.40;66.70;;;;;;5427015;26;20434;-72
2024/04/16 22:53:16;;;;;;;42.05;7.93;;;17.40;66.80;;;;;;5458606;26;20009;-73
2024/04/16 22:55:46;;;;;;;36.75;7.43;;;17.40;66.70;;;;;;5458911;26;19998;-73
2024/04/16 22:58:12;;;;;;;36.10;7.68;;;17.40;66.90;;;;;;5426782;26;20011;-72
2024/04/16 23:00:38;;;;;;;33.80;7.70;;;17.40;66.80;;;;;;5458742;26;20473;-72
2024/04/16 23:03:05;;;;;;;41.92;8.07;;;17.40;66.80;;;;;;5458629;26;20005;-72
2024/04/16 23:05:35;;;;;;;39.75;7.45;;;17.40;66.90;;;;;;5458630;26;19995;-72
2024/04/16 23:08:02;;;;;;;38.15;7.88;;;17.40;67.00;;;;;;5458635;26;20013;-72
2024/04/16 23:10:28;;;;;;;40.65;8.25;;;17.30;67.00;;;;;;5458506;26;20003;-72
2024/04/16 23:12:53;;;;;;;41.58;8.80;;;17.30;67.10;;;;;;5458397;26;19999;-72
2024/04/16 23:15:19;;;;;;;38.80;8.15;;;17.30;67.20;;;;;;5458442;26;19999;-72
2024/04/16 23:17:45;;;;;;;32.22;7.53;;;17.20;67.30;;;;;;5458023;26;19999;-72
2024/04/16 23:20:10;;;;;;;37.45;7.47;;;17.20;67.30;;;;;;5458066;26;20010;-72
2024/04/16 23:22:36;;;;;;;38.47;8.27;;;17.20;67.20;;;;;;5457581;26;19999;-72
2024/04/16 23:25:02;;;;;;;31.13;7.63;;;17.20;67.20;;;;;;5454830;26;20071;-71
2024/04/16 23:27:27;;;;;;;40.08;7.10;;;17.20;67.20;;;;;;5453992;26;20003;-72
2024/04/16 23:29:53;;;;;;;39.70;8.32;;;17.20;67.10;;;;;;5453701;26;20009;-73
2024/04/16 23:32:20;;;;;;;40.08;7.13;;;17.10;67.10;;;;;;5454052;26;20327;-72
2024/04/16 23:34:46;;;;;;;41.70;7.50;;;17.10;67.20;;;;;;5453817;26;20439;-71
2024/04/16 23:37:12;;;;;;;32.85;7.20;;;17.10;67.10;;;;;;5422203;26;20001;-73
2024/04/16 23:39:40;;;;;;;32.92;6.30;;;17.10;67.00;;;;;;5453992;26;20331;-71